createdAt,value
2018-09-10T00:00:57.654Z,22.59
2018-09-10T00:01:57.681Z,22.59
2018-09-10T00:02:57.703Z,22.57
2018-09-10T00:03:57.725Z,22.61
2018-09-10T00:04:57.750Z,22.54
2018-09-10T00:05:57.773Z,22.63
2018-09-10T00:06:57.798Z,22.57
2018-09-10T00:07:57.823Z,22.61
2018-09-10T00:08:57.846Z,22.52
2018-09-10T00:09:57.869Z,22.57
2018-09-10T00:10:57.893Z,22.63
2018-09-10T00:11:57.917Z,22.56
2018-09-10T00:12:57.942Z,22.52
2018-09-10T00:13:57.967Z,22.54
2018-09-10T00:14:57.989Z,22.54
2018-09-10T00:15:58.014Z,22.54
2018-09-10T00:16:58.037Z,22.54
2018-09-10T00:17:58.061Z,22.52
2018-09-10T00:18:58.084Z,22.59
2018-09-10T00:19:58.113Z,22.59
2018-09-10T00:20:58.132Z,22.52
2018-09-10T00:21:58.157Z,22.54
2018-09-10T00:22:58.186Z,22.48
2018-09-10T00:23:58.205Z,22.51
2018-09-10T00:24:58.230Z,22.54
2018-09-10T00:25:58.259Z,22.48
2018-09-10T00:26:58.276Z,22.57
2018-09-10T00:27:58.303Z,22.57
2018-09-10T00:28:58.325Z,22.52
2018-09-10T00:29:58.348Z,22.57
2018-09-10T00:30:58.372Z,22.57
2018-09-10T00:31:58.397Z,22.49
2018-09-10T00:32:58.420Z,22.45
2018-09-10T00:33:58.443Z,22.54
2018-09-10T00:34:58.468Z,22.52
2018-09-10T00:35:58.492Z,22.52
2018-09-10T00:36:58.516Z,22.52
2018-09-10T00:37:58.539Z,22.52
2018-09-10T00:38:58.564Z,22.57
2018-09-10T00:39:58.588Z,22.57
2018-09-10T00:40:58.613Z,22.56
2018-09-10T00:41:58.634Z,22.54
2018-09-10T00:42:58.658Z,22.54
2018-09-10T00:43:58.682Z,22.42
2018-09-10T00:44:58.708Z,22.54
2018-09-10T00:45:58.731Z,22.41
2018-09-10T00:46:58.754Z,22.44
2018-09-10T00:47:58.779Z,22.45
2018-09-10T00:48:58.804Z,22.45
2018-09-10T00:49:58.826Z,22.46
2018-09-10T00:50:58.852Z,22.57
2018-09-10T00:51:58.874Z,22.48
2018-09-10T00:52:58.898Z,22.52
2018-09-10T00:53:58.921Z,22.59
2018-09-10T00:54:58.946Z,22.51
2018-09-10T00:55:58.972Z,22.42
2018-09-10T00:56:58.993Z,22.48
2018-09-10T00:57:59.017Z,22.39
2018-09-10T00:58:59.041Z,22.46
2018-09-10T00:59:59.090Z,22.46
2018-09-10T01:00:59.089Z,22.44
2018-09-10T01:01:59.113Z,22.48
2018-09-10T01:02:59.137Z,22.46
2018-09-10T01:03:59.163Z,22.57
2018-09-10T01:04:59.184Z,22.46
2018-09-10T01:05:59.208Z,22.42
2018-09-10T01:06:59.232Z,22.48
2018-09-10T01:07:59.256Z,22.49
2018-09-10T01:08:59.280Z,22.46
2018-09-10T01:09:59.304Z,22.42
2018-09-10T01:10:59.328Z,22.46
2018-09-10T01:11:59.352Z,22.44
2018-09-10T01:12:59.376Z,22.44
2018-09-10T01:13:59.399Z,22.52
2018-09-10T01:14:59.423Z,22.42
2018-09-10T01:15:59.448Z,22.45
2018-09-10T01:16:59.471Z,22.45
2018-09-10T01:17:59.494Z,22.42
2018-09-10T01:18:59.521Z,22.44
2018-09-10T01:19:59.548Z,22.46
2018-09-10T01:20:59.567Z,22.45
2018-09-10T01:21:59.590Z,22.45
2018-09-10T01:22:59.614Z,22.45
2018-09-10T01:23:59.638Z,22.39
2018-09-10T01:24:59.662Z,22.45
2018-09-10T01:25:59.686Z,22.44
2018-09-10T01:26:59.710Z,22.48
2018-09-10T01:27:59.735Z,22.48
2018-09-10T01:28:59.759Z,22.48
2018-09-10T01:29:59.782Z,22.42
2018-09-10T01:30:59.805Z,22.42
2018-09-10T01:31:59.831Z,22.44
2018-09-10T01:32:59.853Z,22.51
2018-09-10T01:33:59.876Z,22.42
2018-09-10T01:34:59.900Z,22.49
2018-09-10T01:35:59.925Z,22.41
2018-09-10T01:36:59.949Z,22.39
2018-09-10T01:37:59.972Z,22.48
2018-09-10T01:39:00.000Z,22.48
2018-09-10T01:40:00.027Z,22.42
2018-09-10T01:41:00.044Z,22.42
2018-09-10T01:42:00.068Z,22.46
2018-09-10T01:43:00.100Z,22.46
2018-09-10T01:44:00.117Z,22.49
2018-09-10T01:45:00.140Z,22.46
2018-09-10T01:46:00.164Z,22.46
2018-09-10T01:47:00.191Z,22.42
2018-09-10T01:48:00.211Z,22.49
2018-09-10T01:49:00.235Z,22.42
2018-09-10T01:50:00.258Z,22.46
2018-09-10T01:51:00.283Z,22.44
2018-09-10T01:52:00.309Z,22.38
2018-09-10T01:53:00.330Z,22.45
2018-09-10T01:54:00.353Z,22.46
2018-09-10T01:55:00.381Z,22.44
2018-09-10T01:56:00.402Z,22.45
2018-09-10T01:57:00.427Z,22.45
2018-09-10T01:58:00.452Z,22.46
2018-09-10T01:59:00.473Z,22.44
2018-09-10T02:00:00.497Z,22.45
2018-09-10T02:01:00.525Z,22.39
2018-09-10T02:02:00.545Z,22.44
2018-09-10T02:03:00.569Z,22.45
2018-09-10T02:04:00.595Z,22.46
2018-09-10T02:05:00.617Z,22.39
2018-09-10T02:06:00.640Z,22.45
2018-09-10T02:07:00.669Z,22.45
2018-09-10T02:08:00.690Z,22.39
2018-09-10T02:09:00.712Z,22.45
2018-09-10T02:10:00.735Z,22.36
2018-09-10T02:11:00.759Z,22.36
2018-09-10T02:12:00.783Z,22.35
2018-09-10T02:13:00.807Z,22.42
2018-09-10T02:14:00.831Z,22.42
2018-09-10T02:15:00.855Z,22.35
2018-09-10T02:16:00.879Z,22.38
2018-09-10T02:17:00.910Z,22.45
2018-09-10T02:18:00.927Z,22.45
2018-09-10T02:19:00.951Z,22.33
2018-09-10T02:20:00.978Z,22.36
2018-09-10T02:21:00.999Z,22.51
2018-09-10T02:22:01.022Z,22.39
2018-09-10T02:23:01.047Z,22.42
2018-09-10T02:24:01.070Z,22.48
2018-09-10T02:25:01.097Z,22.42
2018-09-10T02:26:01.121Z,22.42
2018-09-10T02:27:01.141Z,22.41
2018-09-10T02:28:01.165Z,22.45
2018-09-10T02:29:01.189Z,22.31
2018-09-10T02:30:01.213Z,22.42
2018-09-10T02:31:01.236Z,22.33
2018-09-10T02:32:01.260Z,22.33
2018-09-10T02:33:01.285Z,22.38
2018-09-10T02:34:01.308Z,22.39
2018-09-10T02:35:01.331Z,22.44
2018-09-10T02:36:01.356Z,22.36
2018-09-10T02:37:01.382Z,22.45
2018-09-10T02:38:01.404Z,22.45
2018-09-10T02:39:01.431Z,22.39
2018-09-10T02:40:01.453Z,22.38
2018-09-10T02:41:01.476Z,22.30
2018-09-10T02:42:01.499Z,22.38
2018-09-10T02:43:01.523Z,22.33
2018-09-10T02:44:01.549Z,22.45
2018-09-10T02:45:01.572Z,22.38
2018-09-10T02:46:01.595Z,22.41
2018-09-10T02:47:01.618Z,22.38
2018-09-10T02:48:01.642Z,22.44
2018-09-10T02:49:01.666Z,22.44
2018-09-10T02:50:01.692Z,22.42
2018-09-10T02:51:01.713Z,22.42
2018-09-10T02:52:01.738Z,22.38
2018-09-10T02:53:01.763Z,22.44
2018-09-10T02:54:01.784Z,22.46
2018-09-10T02:55:01.854Z,22.42
2018-09-10T02:56:01.834Z,22.38
2018-09-10T02:57:01.856Z,22.36
2018-09-10T02:58:01.883Z,22.33
2018-09-10T02:59:01.907Z,22.44
2018-09-10T03:00:01.928Z,22.31
2018-09-10T03:01:01.952Z,22.38
2018-09-10T03:02:01.977Z,22.31
2018-09-10T03:03:02.000Z,22.35
2018-09-10T03:04:02.023Z,22.38
2018-09-10T03:05:02.047Z,22.30
2018-09-10T03:06:02.070Z,22.33
2018-09-10T03:07:02.097Z,22.33
2018-09-10T03:08:02.118Z,22.36
2018-09-10T03:09:02.142Z,22.35
2018-09-10T03:10:02.165Z,22.26
2018-09-10T03:11:02.188Z,22.35
2018-09-10T03:12:02.213Z,22.30
2018-09-10T03:13:02.237Z,22.30
2018-09-10T03:14:02.266Z,22.21
2018-09-10T03:15:02.284Z,22.24
2018-09-10T03:16:02.309Z,22.21
2018-09-10T03:17:02.331Z,22.19
2018-09-10T03:18:02.394Z,22.21
2018-09-10T03:19:02.379Z,22.24
2018-09-10T03:20:02.402Z,22.29
2018-09-10T03:21:02.458Z,22.21
2018-09-10T03:22:02.451Z,22.27
2018-09-10T03:23:02.481Z,22.30
2018-09-10T03:24:02.542Z,22.21
2018-09-10T03:25:02.522Z,22.29
2018-09-10T03:26:02.549Z,22.26
2018-09-10T03:27:02.569Z,22.23
2018-09-10T03:28:02.594Z,22.23
2018-09-10T03:29:02.618Z,22.19
2018-09-10T03:30:02.639Z,22.29
2018-09-10T03:31:02.664Z,22.21
2018-09-10T03:32:02.691Z,22.20
2018-09-10T03:33:02.713Z,22.23
2018-09-10T03:34:02.734Z,22.19
2018-09-10T03:35:02.759Z,22.27
2018-09-10T03:36:02.783Z,22.14
2018-09-10T03:37:02.808Z,22.23
2018-09-10T03:38:02.829Z,22.21
2018-09-10T03:39:02.855Z,22.24
2018-09-10T03:40:02.877Z,22.20
2018-09-10T03:41:02.901Z,22.26
2018-09-10T03:42:02.925Z,22.17
2018-09-10T03:43:02.949Z,22.14
2018-09-10T03:44:02.973Z,22.19
2018-09-10T03:45:02.996Z,22.23
2018-09-10T03:46:03.022Z,22.20
2018-09-10T03:47:03.046Z,22.21
2018-09-10T03:48:03.067Z,22.14
2018-09-10T03:49:03.091Z,22.15
2018-09-10T03:50:03.113Z,22.12
2018-09-10T03:51:03.140Z,22.21
2018-09-10T03:52:03.162Z,22.11
2018-09-10T03:53:03.185Z,22.08
2018-09-10T03:54:03.210Z,22.15
2018-09-10T03:55:03.237Z,22.14
2018-09-10T03:56:03.256Z,22.11
2018-09-10T03:57:03.281Z,22.06
2018-09-10T03:58:03.304Z,22.08
2018-09-10T03:59:03.326Z,22.04
2018-09-10T04:00:03.351Z,22.11
2018-09-10T04:01:03.374Z,22.12
2018-09-10T04:02:03.402Z,22.09
2018-09-10T04:03:03.421Z,22.06
2018-09-10T04:04:03.449Z,22.09
2018-09-10T04:05:03.469Z,22.06
2018-09-10T04:06:03.492Z,22.05
2018-09-10T04:07:03.516Z,22.14
2018-09-10T04:08:03.540Z,22.08
2018-09-10T04:09:03.563Z,22.06
2018-09-10T04:10:03.588Z,22.06
2018-09-10T04:11:03.609Z,22.08
2018-09-10T04:12:03.634Z,22.04
2018-09-10T04:13:03.660Z,22.06
2018-09-10T04:14:03.681Z,22.09
2018-09-10T04:15:03.709Z,22.05
2018-09-10T04:16:03.728Z,22.06
2018-09-10T04:17:03.761Z,22.19
2018-09-10T04:18:03.776Z,22.09
2018-09-10T04:19:03.799Z,22.08
2018-09-10T04:20:03.823Z,22.09
2018-09-10T04:21:03.847Z,22.01
2018-09-10T04:22:03.869Z,22.06
2018-09-10T04:23:03.893Z,22.09
2018-09-10T04:24:03.917Z,22.08
2018-09-10T04:25:03.942Z,22.05
2018-09-10T04:26:04.001Z,22.14
2018-09-10T04:27:03.996Z,22.08
2018-09-10T04:28:04.012Z,22.05
2018-09-10T04:29:04.036Z,22.06
2018-09-10T04:30:04.060Z,22.06
2018-09-10T04:31:04.082Z,22.11
2018-09-10T04:32:04.106Z,22.06
2018-09-10T04:33:04.132Z,22.06
2018-09-10T04:34:04.153Z,22.04
2018-09-10T04:35:04.177Z,22.06
2018-09-10T04:36:04.263Z,22.06
2018-09-10T04:37:04.226Z,22.02
2018-09-10T04:38:04.252Z,22.05
2018-09-10T04:39:04.273Z,22.08
2018-09-10T04:40:04.297Z,22.04
2018-09-10T04:41:04.321Z,22.08
2018-09-10T04:42:04.350Z,22.14
2018-09-10T04:43:04.368Z,22.04
2018-09-10T04:44:04.393Z,22.05
2018-09-10T04:45:04.414Z,22.04
2018-09-10T04:46:04.436Z,22.06
2018-09-10T04:47:04.460Z,22.06
2018-09-10T04:48:04.485Z,22.08
2018-09-10T04:49:04.508Z,22.08
2018-09-10T04:50:04.532Z,22.14
2018-09-10T04:51:04.555Z,22.05
2018-09-10T04:52:04.579Z,22.06
2018-09-10T04:53:04.604Z,22.06
2018-09-10T04:54:04.625Z,22.05
2018-09-10T04:55:04.652Z,22.14
2018-09-10T04:56:04.673Z,22.06
2018-09-10T04:57:04.696Z,22.08
2018-09-10T04:58:04.820Z,22.12
2018-09-10T04:59:04.743Z,22.06
2018-09-10T05:00:04.768Z,22.04
2018-09-10T05:01:04.793Z,22.08
2018-09-10T05:02:04.813Z,22.09
2018-09-10T05:03:04.838Z,22.09
2018-09-10T05:04:04.864Z,22.06
2018-09-10T05:05:04.886Z,22.12
2018-09-10T05:06:04.909Z,22.09
2018-09-10T05:07:04.933Z,22.17
2018-09-10T05:08:05.012Z,22.09
2018-09-10T05:09:04.979Z,22.04
2018-09-10T05:10:05.076Z,22.14
2018-09-10T05:11:05.026Z,22.06
2018-09-10T05:12:05.050Z,22.06
2018-09-10T05:13:05.074Z,22.08
2018-09-10T05:14:05.098Z,22.15
2018-09-10T05:15:05.120Z,22.09
2018-09-10T05:16:05.144Z,22.12
2018-09-10T05:17:05.169Z,22.09
2018-09-10T05:18:05.191Z,22.09
2018-09-10T05:19:05.216Z,22.11
2018-09-10T05:20:05.239Z,22.12
2018-09-10T05:21:05.263Z,22.06
2018-09-10T05:22:05.342Z,22.11
2018-09-10T05:23:05.309Z,22.14
2018-09-10T05:24:05.333Z,22.17
2018-09-10T05:25:05.356Z,22.21
2018-09-10T05:26:05.379Z,22.23
2018-09-10T05:27:05.403Z,22.14
2018-09-10T05:28:05.442Z,22.17
2018-09-10T05:29:05.457Z,22.15
2018-09-10T05:30:05.474Z,22.09
2018-09-10T05:31:05.497Z,22.15
2018-09-10T05:32:05.523Z,22.17
2018-09-10T05:33:05.548Z,22.12
2018-09-10T05:34:05.568Z,22.15
2018-09-10T05:35:05.597Z,22.09
2018-09-10T05:36:05.615Z,22.11
2018-09-10T05:37:05.640Z,22.11
2018-09-10T05:38:05.664Z,22.04
2018-09-10T05:39:05.686Z,22.14
2018-09-10T05:40:05.710Z,22.21
2018-09-10T05:41:05.736Z,22.17
2018-09-10T05:42:05.760Z,22.05
2018-09-10T05:43:05.781Z,22.15
2018-09-10T05:44:05.806Z,22.15
2018-09-10T05:45:05.829Z,22.21
2018-09-10T05:46:05.852Z,22.17
2018-09-10T05:47:05.877Z,22.11
2018-09-10T05:48:05.900Z,22.05
2018-09-10T05:49:05.923Z,22.12
2018-09-10T05:50:05.948Z,22.17
2018-09-10T05:51:05.971Z,22.20
2018-09-10T05:52:05.997Z,22.12
2018-09-10T05:53:06.041Z,22.14
2018-09-10T05:54:06.040Z,22.21
2018-09-10T05:55:06.064Z,22.20
2018-09-10T05:56:06.090Z,22.23
2018-09-10T05:57:06.115Z,22.17
2018-09-10T05:58:06.142Z,22.23
2018-09-10T05:59:06.160Z,22.19
2018-09-10T06:00:06.182Z,22.23
2018-09-10T06:01:06.206Z,22.20
2018-09-10T06:02:06.229Z,22.23
2018-09-10T06:03:06.252Z,22.23
2018-09-10T06:04:06.278Z,22.21
2018-09-10T06:05:06.300Z,22.23
2018-09-10T06:06:06.323Z,22.23
2018-09-10T06:07:06.347Z,22.21
2018-09-10T06:08:06.370Z,22.21
2018-09-10T06:09:06.395Z,22.24
2018-09-10T06:10:06.419Z,22.24
2018-09-10T06:11:06.441Z,22.19
2018-09-10T06:12:06.464Z,22.21
2018-09-10T06:13:06.489Z,22.20
2018-09-10T06:14:06.511Z,22.19
2018-09-10T06:15:06.535Z,22.20
2018-09-10T06:16:06.560Z,22.24
2018-09-10T06:17:06.583Z,22.23
2018-09-10T06:18:06.606Z,22.29
2018-09-10T06:19:06.630Z,22.23
2018-09-10T06:20:06.653Z,22.24
2018-09-10T06:21:06.680Z,22.21
2018-09-10T06:22:06.700Z,22.23
2018-09-10T06:23:06.725Z,22.27
2018-09-10T06:24:06.754Z,22.30
2018-09-10T06:25:06.773Z,22.29
2018-09-10T06:26:06.795Z,22.29
2018-09-10T06:27:06.821Z,22.24
2018-09-10T06:28:06.843Z,22.26
2018-09-10T06:29:06.868Z,22.30
2018-09-10T06:30:06.907Z,22.20
2018-09-10T06:31:06.921Z,22.26
2018-09-10T06:32:06.938Z,22.26
2018-09-10T06:33:06.961Z,22.23
2018-09-10T06:34:07.054Z,22.24
2018-09-10T06:35:07.008Z,22.31
2018-09-10T06:36:07.031Z,22.23
2018-09-10T06:37:07.115Z,22.36
2018-09-10T06:38:07.079Z,22.31
2018-09-10T06:39:07.102Z,22.31
2018-09-10T06:40:07.126Z,22.35
2018-09-10T06:41:07.154Z,22.36
2018-09-10T06:42:07.175Z,22.36
2018-09-10T06:43:07.197Z,22.30
2018-09-10T06:44:07.220Z,22.31
2018-09-10T06:45:07.257Z,22.39
2018-09-10T06:46:07.270Z,22.44
2018-09-10T06:47:07.291Z,22.33
2018-09-10T06:48:07.316Z,22.41
2018-09-10T06:49:07.339Z,22.41
2018-09-10T06:50:07.366Z,22.46
2018-09-10T06:51:07.387Z,22.46
2018-09-10T06:52:07.414Z,22.41
2018-09-10T06:53:07.436Z,22.51
2018-09-10T06:54:07.460Z,22.51
2018-09-10T06:55:07.483Z,22.46
2018-09-10T06:56:07.507Z,22.51
2018-09-10T06:57:07.537Z,22.59
2018-09-10T06:58:07.554Z,22.54
2018-09-10T06:59:07.584Z,22.59
2018-09-10T07:00:07.608Z,22.63
2018-09-10T07:01:07.627Z,22.57
2018-09-10T07:02:07.649Z,22.52
2018-09-10T07:03:07.673Z,22.57
2018-09-10T07:04:07.698Z,22.54
2018-09-10T07:05:07.724Z,22.64
2018-09-10T07:06:07.744Z,22.48
2018-09-10T07:07:07.769Z,22.46
2018-09-10T07:08:07.793Z,22.59
2018-09-10T07:09:07.816Z,22.56
2018-09-10T07:10:07.840Z,22.60
2018-09-10T07:11:07.864Z,22.59
2018-09-10T07:12:07.889Z,22.61
2018-09-10T07:13:07.931Z,22.63
2018-09-10T07:14:07.938Z,22.66
2018-09-10T07:15:07.959Z,22.61
2018-09-10T07:16:07.984Z,22.69
2018-09-10T07:17:08.009Z,22.75
2018-09-10T07:18:08.032Z,22.72
2018-09-10T07:19:08.148Z,22.78
2018-09-10T07:20:08.079Z,22.82
2018-09-10T07:21:08.103Z,22.86
2018-09-10T07:22:08.130Z,22.88
2018-09-10T07:23:08.150Z,22.94
2018-09-10T07:24:08.173Z,22.96
2018-09-10T07:25:08.199Z,22.99
2018-09-10T07:26:08.222Z,23.04
2018-09-10T07:27:08.247Z,23.16
2018-09-10T07:28:08.271Z,23.16
2018-09-10T07:29:08.294Z,23.18
2018-09-10T07:30:08.319Z,23.25
2018-09-10T07:31:08.342Z,23.31
2018-09-10T07:32:08.368Z,23.41
2018-09-10T07:33:08.390Z,23.42
2018-09-10T07:34:08.412Z,23.44
2018-09-10T07:35:08.439Z,23.39
2018-09-10T07:36:08.464Z,23.47
2018-09-10T07:37:08.487Z,23.57
2018-09-10T07:38:08.512Z,23.69
2018-09-10T07:39:08.534Z,23.75
2018-09-10T07:40:08.559Z,23.77
2018-09-10T07:41:08.587Z,23.81
2018-09-10T07:42:08.608Z,23.87
2018-09-10T07:43:08.633Z,23.87
2018-09-10T07:44:08.686Z,23.93
2018-09-10T07:45:08.681Z,24.00
2018-09-10T07:46:08.704Z,24.11
2018-09-10T07:47:08.730Z,24.05
2018-09-10T07:48:08.755Z,24.05
2018-09-10T07:49:08.777Z,24.05
2018-09-10T07:50:08.804Z,24.02
2018-09-10T07:51:08.826Z,24.04
2018-09-10T07:52:08.873Z,24.05
2018-09-10T07:53:08.877Z,24.06
2018-09-10T07:54:08.900Z,24.02
2018-09-10T07:55:08.924Z,24.02
2018-09-10T07:56:08.949Z,24.02
2018-09-10T07:57:08.979Z,24.06
2018-09-10T07:58:08.997Z,24.18
2018-09-10T07:59:09.025Z,24.19
2018-09-10T08:00:09.048Z,24.26
2018-09-10T08:01:09.070Z,24.21
2018-09-10T08:02:09.094Z,24.29
2018-09-10T08:03:09.212Z,24.29
2018-09-10T08:04:09.145Z,24.33
2018-09-10T08:05:09.171Z,24.42
2018-09-10T08:06:09.198Z,24.37
2018-09-10T08:07:09.220Z,24.41
2018-09-10T08:08:09.243Z,24.44
2018-09-10T08:09:09.364Z,24.52
2018-09-10T08:10:09.300Z,24.48
2018-09-10T08:11:09.321Z,24.44
2018-09-10T08:12:09.343Z,24.45
2018-09-10T08:13:09.371Z,24.44
2018-09-10T08:14:09.406Z,24.42
2018-09-10T08:15:09.417Z,24.44
2018-09-10T08:16:09.446Z,24.39
2018-09-10T08:17:09.473Z,24.49
2018-09-10T08:18:09.490Z,24.41
2018-09-10T08:19:09.522Z,24.41
2018-09-10T08:20:09.550Z,24.61
2018-09-10T08:21:09.565Z,24.56
2018-09-10T08:22:09.594Z,24.55
2018-09-10T08:23:09.616Z,24.61
2018-09-10T08:24:09.714Z,24.53
2018-09-10T08:25:09.715Z,24.61
2018-09-10T08:26:09.692Z,24.59
2018-09-10T08:27:09.719Z,24.59
2018-09-10T08:28:09.742Z,24.55
2018-09-10T08:29:09.767Z,24.45
2018-09-10T08:30:09.793Z,24.49
2018-09-10T08:31:09.816Z,24.45
2018-09-10T08:32:09.840Z,24.44
2018-09-10T08:33:09.866Z,24.45
2018-09-10T08:34:09.890Z,24.41
2018-09-10T08:35:09.914Z,24.37
2018-09-10T08:36:09.940Z,24.30
2018-09-10T08:37:09.966Z,24.33
2018-09-10T08:38:09.994Z,24.33
2018-09-10T08:39:10.021Z,24.23
2018-09-10T08:40:10.041Z,24.23
2018-09-10T08:41:10.062Z,24.29
2018-09-10T08:42:10.087Z,24.27
2018-09-10T08:43:10.112Z,24.24
2018-09-10T08:44:10.140Z,24.21
2018-09-10T08:45:10.164Z,24.14
2018-09-10T08:46:10.192Z,24.16
2018-09-10T08:47:10.216Z,24.19
2018-09-10T08:48:10.254Z,24.16
2018-09-10T08:49:10.266Z,24.16
2018-09-10T08:50:10.294Z,24.15
2018-09-10T08:51:10.315Z,24.12
2018-09-10T08:52:10.340Z,24.08
2018-09-10T08:53:10.366Z,24.08
2018-09-10T08:54:10.507Z,24.04
2018-09-10T08:55:10.519Z,24.11
2018-09-10T08:56:10.702Z,24.11
2018-09-10T08:57:10.465Z,24.02
2018-09-10T08:58:10.490Z,24.09
2018-09-10T08:59:10.516Z,24.00
2018-09-10T09:00:10.575Z,24.09
2018-09-10T09:01:10.567Z,24.06
2018-09-10T09:02:10.588Z,24.16
2018-09-10T09:03:10.614Z,24.16
2018-09-10T09:04:10.640Z,24.18
2018-09-10T09:05:10.664Z,24.15
2018-09-10T09:06:10.696Z,24.18
2018-09-10T09:07:10.713Z,24.21
2018-09-10T09:08:10.739Z,24.18
2018-09-10T09:09:10.775Z,24.23
2018-09-10T09:10:10.791Z,24.19
2018-09-10T09:11:10.819Z,24.29
2018-09-10T09:12:10.842Z,24.18
2018-09-10T09:13:10.865Z,24.27
2018-09-10T09:14:10.888Z,24.21
2018-09-10T09:15:10.912Z,24.24
2018-09-10T09:16:10.937Z,24.34
2018-09-10T09:17:10.963Z,24.34
2018-09-10T09:18:10.991Z,24.36
2018-09-10T09:19:11.025Z,24.37
2018-09-10T09:20:11.038Z,24.44
2018-09-10T09:21:11.061Z,24.44
2018-09-10T09:22:11.079Z,24.48
2018-09-10T09:23:11.191Z,24.44
2018-09-10T09:24:11.144Z,24.46
2018-09-10T09:25:11.170Z,24.42
2018-09-10T09:26:11.188Z,24.39
2018-09-10T09:27:11.218Z,24.42
2018-09-10T09:28:11.241Z,24.41
2018-09-10T09:29:11.265Z,24.41
2018-09-10T09:30:11.308Z,24.39
2018-09-10T09:31:11.313Z,24.42
2018-09-10T09:32:11.338Z,24.44
2018-09-10T09:33:11.364Z,24.39
2018-09-10T09:34:11.391Z,24.39
2018-09-10T09:35:11.422Z,24.41
2018-09-10T09:36:11.461Z,24.37
2018-09-10T09:37:11.468Z,24.33
2018-09-10T09:38:11.489Z,24.29
2018-09-10T09:39:11.515Z,24.31
2018-09-10T09:40:11.536Z,24.33
2018-09-10T09:41:11.576Z,24.31
2018-09-10T09:42:11.595Z,24.19
2018-09-10T09:43:11.669Z,24.21
2018-09-10T09:44:11.642Z,24.19
2018-09-10T09:45:11.666Z,24.16
2018-09-10T09:46:11.691Z,24.30
2018-09-10T09:47:11.713Z,24.27
2018-09-10T09:48:11.741Z,24.27
2018-09-10T09:49:11.764Z,24.18
2018-09-10T09:50:11.790Z,24.14
2018-09-10T09:51:11.866Z,24.16
2018-09-10T09:52:11.847Z,24.16
2018-09-10T09:53:11.866Z,24.11
2018-09-10T09:54:11.891Z,24.16
2018-09-10T09:55:11.915Z,24.15
2018-09-10T09:56:11.940Z,24.16
2018-09-10T09:57:11.965Z,24.12
2018-09-10T09:58:11.988Z,24.26
2018-09-10T09:59:12.015Z,24.15
2018-09-10T10:00:12.037Z,24.21
2018-09-10T10:01:12.063Z,24.21
2018-09-10T10:02:12.093Z,24.18
2018-09-10T10:03:12.115Z,24.21
2018-09-10T10:04:12.278Z,24.33
2018-09-10T10:05:12.167Z,24.41
2018-09-10T10:06:12.195Z,24.45
2018-09-10T10:07:12.214Z,24.39
2018-09-10T10:08:12.234Z,24.44
2018-09-10T10:09:12.266Z,24.42
2018-09-10T10:10:12.299Z,24.45
2018-09-10T10:11:12.375Z,24.45
2018-09-10T10:12:12.443Z,24.39
2018-09-10T10:13:12.366Z,24.42
2018-09-10T10:14:13.169Z,24.48
2018-09-10T10:15:12.443Z,24.48
2018-09-10T10:16:12.448Z,24.42
2018-09-10T10:17:12.465Z,24.46
2018-09-10T10:18:12.509Z,24.39
2018-09-10T10:19:12.527Z,24.46
2018-09-10T10:20:13.193Z,24.44
2018-09-10T10:21:12.587Z,24.42
2018-09-10T10:22:12.598Z,24.42
2018-09-10T10:23:12.652Z,24.44
2018-09-10T10:24:12.659Z,24.42
2018-09-10T10:25:12.671Z,24.42
2018-09-10T10:26:12.725Z,24.34
2018-09-10T10:27:12.731Z,24.33
2018-09-10T10:28:12.787Z,24.36
2018-09-10T10:29:12.795Z,24.42
2018-09-10T10:30:12.800Z,24.42
2018-09-10T10:31:13.835Z,24.48
2018-09-10T10:32:12.869Z,24.41
2018-09-10T10:33:12.874Z,24.41
2018-09-10T10:34:12.898Z,24.45
2018-09-10T10:35:12.938Z,24.45
2018-09-10T10:36:13.623Z,24.52
2018-09-10T10:37:13.003Z,24.45
2018-09-10T10:38:13.012Z,24.52
2018-09-10T10:39:13.034Z,24.48
2018-09-10T10:40:13.045Z,24.61
2018-09-10T10:41:13.074Z,24.59
2018-09-10T10:42:13.097Z,24.53
2018-09-10T10:43:13.122Z,24.53
2018-09-10T10:44:13.146Z,24.55
2018-09-10T10:45:13.174Z,24.60
2018-09-10T10:46:13.196Z,24.59
2018-09-10T10:47:13.225Z,24.59
2018-09-10T10:48:13.250Z,24.59
2018-09-10T10:49:13.275Z,24.59
2018-09-10T10:50:13.300Z,24.60
2018-09-10T10:51:13.329Z,24.70
2018-09-10T10:52:13.350Z,24.55
2018-09-10T10:53:13.378Z,24.68
2018-09-10T10:54:13.400Z,24.68
2018-09-10T10:55:13.427Z,24.74
2018-09-10T10:56:13.452Z,24.71
2018-09-10T10:57:13.494Z,24.70
2018-09-10T10:58:13.504Z,24.71
2018-09-10T10:59:13.531Z,24.66
2018-09-10T11:00:13.554Z,24.67
2018-09-10T11:01:13.587Z,24.70
2018-09-10T11:02:13.603Z,24.66
2018-09-10T11:03:13.626Z,24.70
2018-09-10T11:04:13.701Z,24.68
2018-09-10T11:05:13.677Z,24.71
2018-09-10T11:06:13.701Z,24.70
2018-09-10T11:07:13.729Z,24.77
2018-09-10T11:08:13.756Z,24.66
2018-09-10T11:09:13.781Z,24.75
2018-09-10T11:10:13.808Z,24.80
2018-09-10T11:11:13.831Z,24.89
2018-09-10T11:12:13.858Z,24.89
2018-09-10T11:13:13.880Z,24.82
2018-09-10T11:14:13.906Z,24.87
2018-09-10T11:15:13.936Z,24.89
2018-09-10T11:16:13.960Z,24.94
2018-09-10T11:17:13.981Z,24.94
2018-09-10T11:18:14.010Z,24.92
2018-09-10T11:19:14.033Z,24.92
2018-09-10T11:20:14.060Z,24.97
2018-09-10T11:21:14.087Z,24.94
2018-09-10T11:22:14.131Z,24.98
2018-09-10T11:23:14.136Z,24.97
2018-09-10T11:24:14.160Z,24.98
2018-09-10T11:25:14.186Z,25.01
2018-09-10T11:26:14.208Z,24.97
2018-09-10T11:27:14.236Z,24.98
2018-09-10T11:28:14.266Z,24.97
2018-09-10T11:29:14.290Z,24.93
2018-09-10T11:30:14.312Z,25.01
2018-09-10T11:31:14.339Z,25.02
2018-09-10T11:32:14.362Z,24.97
2018-09-10T11:33:14.396Z,24.94
2018-09-10T11:34:14.416Z,25.05
2018-09-10T11:35:14.442Z,25.05
2018-09-10T11:36:14.468Z,25.04
2018-09-10T11:37:14.494Z,25.08
2018-09-10T11:38:14.518Z,25.02
2018-09-10T11:39:14.542Z,25.02
2018-09-10T11:40:14.576Z,25.12
2018-09-10T11:41:14.594Z,25.16
2018-09-10T11:42:14.648Z,25.19
2018-09-10T11:43:14.645Z,25.09
2018-09-10T11:44:14.670Z,25.07
2018-09-10T11:45:14.695Z,25.22
2018-09-10T11:46:14.719Z,25.16
2018-09-10T11:47:14.750Z,25.20
2018-09-10T11:48:15.771Z,25.23
2018-09-10T11:49:14.801Z,25.23
2018-09-10T11:50:14.833Z,25.24
2018-09-10T11:51:14.855Z,25.20
2018-09-10T11:52:14.877Z,25.23
2018-09-10T11:53:14.904Z,25.19
2018-09-10T11:54:14.930Z,25.19
2018-09-10T11:55:14.955Z,25.16
2018-09-10T11:56:14.986Z,25.14
2018-09-10T11:57:15.007Z,25.14
2018-09-10T11:58:15.034Z,25.12
2018-09-10T11:59:15.056Z,25.07
2018-09-10T12:00:15.085Z,25.11
2018-09-10T12:01:15.111Z,25.02
2018-09-10T12:02:15.148Z,25.08
2018-09-10T12:03:15.163Z,25.08
2018-09-10T12:04:15.177Z,25.07
2018-09-10T12:05:15.223Z,25.04
2018-09-10T12:06:15.242Z,25.05
2018-09-10T12:07:15.262Z,24.99
2018-09-10T12:08:15.313Z,25.02
2018-09-10T12:09:15.314Z,24.98
2018-09-10T12:10:15.346Z,25.01
2018-09-10T12:11:15.365Z,25.01
2018-09-10T12:12:15.396Z,24.97
2018-09-10T12:13:15.419Z,24.87
2018-09-10T12:14:15.442Z,24.92
2018-09-10T12:15:15.471Z,24.84
2018-09-10T12:16:15.494Z,24.89
2018-09-10T12:17:15.537Z,24.89
2018-09-10T12:18:15.542Z,24.77
2018-09-10T12:19:15.572Z,24.70
2018-09-10T12:20:15.596Z,24.74
2018-09-10T12:21:15.620Z,24.77
2018-09-10T12:22:15.649Z,24.68
2018-09-10T12:23:15.669Z,24.70
2018-09-10T12:24:15.694Z,24.64
2018-09-10T12:25:15.734Z,24.60
2018-09-10T12:26:15.753Z,24.60
2018-09-10T12:27:15.780Z,24.56
2018-09-10T12:28:15.806Z,24.64
2018-09-10T12:29:15.825Z,24.56
2018-09-10T12:30:15.850Z,24.56
2018-09-10T12:31:15.874Z,24.41
2018-09-10T12:32:15.927Z,24.51
2018-09-10T12:33:15.926Z,24.51
2018-09-10T12:34:15.951Z,24.46
2018-09-10T12:35:15.978Z,24.42
2018-09-10T12:36:16.006Z,24.48
2018-09-10T12:37:16.027Z,24.42
2018-09-10T12:38:16.052Z,24.44
2018-09-10T12:39:16.134Z,24.34
2018-09-10T12:40:16.102Z,24.46
2018-09-10T12:41:16.131Z,24.34
2018-09-10T12:42:16.149Z,24.37
2018-09-10T12:43:16.183Z,24.41
2018-09-10T12:44:16.204Z,24.39
2018-09-10T12:45:16.231Z,24.33
2018-09-10T12:46:16.266Z,24.34
2018-09-10T12:47:16.281Z,24.33
2018-09-10T12:48:16.308Z,24.31
2018-09-10T12:49:16.332Z,24.33
2018-09-10T12:50:16.355Z,24.41
2018-09-10T12:51:16.385Z,24.44
2018-09-10T12:52:16.402Z,24.39
2018-09-10T12:53:16.438Z,24.42